createdAt,value
2022-12-01T00:01:57.465Z,89.54
2022-12-01T00:07:00.103Z,88.06
2022-12-01T00:12:04.222Z,88.81
2022-12-01T00:17:06.768Z,89.66
2022-12-01T00:22:09.318Z,91.53
2022-12-01T00:27:13.230Z,95.11
2022-12-01T00:32:16.064Z,92.76
2022-12-01T00:37:18.668Z,91.46
2022-12-01T00:42:22.619Z,93.81
2022-12-01T00:47:25.662Z,92.91
2022-12-01T00:52:28.332Z,94.11
2022-12-01T00:57:32.314Z,92.17
2022-12-01T01:02:39.635Z,91.99
2022-12-01T01:07:43.464Z,90.51
2022-12-01T01:12:47.391Z,91.72
2022-12-01T01:17:49.988Z,90.91
2022-12-01T01:22:52.545Z,93.09
2022-12-01T01:27:56.450Z,91.75
2022-12-01T01:33:00.019Z,91.40
2022-12-01T01:38:02.567Z,91.76
2022-12-01T01:43:15.539Z,94.22
2022-12-01T01:48:18.219Z,94.17
2022-12-01T01:53:21.395Z,94.20
2022-12-01T01:58:25.676Z,94.07
2022-12-01T02:03:30.287Z,91.65
2022-12-01T02:08:33.961Z,95.28
2022-12-01T02:13:47.894Z,95.75
2022-12-01T02:18:56.648Z,94.68
2022-12-01T02:24:46.610Z,93.54
2022-12-01T02:30:06.860Z,93.14
2022-12-01T02:35:17.272Z,93.50
2022-12-01T02:40:24.625Z,93.02
2022-12-01T02:45:37.621Z,95.03
2022-12-01T02:50:43.615Z,98.15
2022-12-01T02:55:51.258Z,96.11
2022-12-01T03:01:18.056Z,94.52
2022-12-01T03:06:30.915Z,94.25
2022-12-01T03:11:42.347Z,97.82
2022-12-01T03:16:50.980Z,97.08
2022-12-01T03:22:01.157Z,99.98
2022-12-01T03:27:05.256Z,96.04
2022-12-01T03:32:13.908Z,98.26
2022-12-01T03:37:23.153Z,100.00
2022-12-01T03:42:29.032Z,97.06
2022-12-01T03:47:35.628Z,96.36
2022-12-01T03:52:46.733Z,99.33
2022-12-01T03:57:55.267Z,100.00
2022-12-01T04:02:58.427Z,100.00
2022-12-01T04:08:02.773Z,100.00
2022-12-01T04:13:05.412Z,100.00
2022-12-01T04:18:07.966Z,100.00
2022-12-01T04:23:31.884Z,100.00
2022-12-01T04:28:34.490Z,100.00
2022-12-01T04:33:37.145Z,100.00
2022-12-01T04:38:41.167Z,100.00
2022-12-01T04:43:44.579Z,100.00
2022-12-01T04:48:49.131Z,100.00
2022-12-01T04:53:52.954Z,100.00
2022-12-01T04:58:55.654Z,100.00
2022-12-01T05:03:58.285Z,100.00
2022-12-01T05:09:03.052Z,100.00
2022-12-01T05:14:05.740Z,100.00
2022-12-01T05:19:26.221Z,100.00
2022-12-01T05:24:30.286Z,100.00
2022-12-01T05:29:33.041Z,100.00
2022-12-01T05:34:35.601Z,100.00
2022-12-01T05:39:40.220Z,100.00
2022-12-01T05:44:42.735Z,100.00
2022-12-01T05:49:45.448Z,100.00
2022-12-01T05:54:49.363Z,100.00
2022-12-01T05:59:51.941Z,100.00
2022-12-01T06:04:54.788Z,100.00
2022-12-01T06:09:58.704Z,100.00
2022-12-01T06:15:01.585Z,100.00
2022-12-01T06:20:04.593Z,100.00
2022-12-01T06:25:10.076Z,100.00
2022-12-01T06:30:13.206Z,100.00
2022-12-01T06:35:15.897Z,100.00
2022-12-01T06:40:20.093Z,100.00
2022-12-01T06:45:22.649Z,100.00
2022-12-01T06:50:25.948Z,100.00
2022-12-01T06:55:29.906Z,100.00
2022-12-01T07:00:33.260Z,100.00
2022-12-01T07:05:35.866Z,100.00
2022-12-01T07:10:39.962Z,100.00
2022-12-01T07:15:43.353Z,100.00
2022-12-01T07:20:45.874Z,100.00
2022-12-01T07:25:49.737Z,100.00
2022-12-01T07:30:52.424Z,100.00
2022-12-01T07:35:55.228Z,100.00
2022-12-01T07:41:04.245Z,100.00
2022-12-01T07:46:09.335Z,100.00
2022-12-01T07:51:13.686Z,100.00
2022-12-01T07:56:19.073Z,100.00
2022-12-01T08:01:23.145Z,100.00
2022-12-01T08:06:27.129Z,100.00
2022-12-01T08:11:31.164Z,100.00
2022-12-01T08:16:33.689Z,100.00
2022-12-01T08:21:37.517Z,100.00
2022-12-01T08:26:41.372Z,100.00
2022-12-01T08:31:44.027Z,100.00
2022-12-01T08:36:46.547Z,100.00
2022-12-01T08:41:50.417Z,100.00
2022-12-01T08:46:53.081Z,100.00
2022-12-01T08:51:56.229Z,100.00
2022-12-01T08:57:00.280Z,100.00
2022-12-01T09:02:06.965Z,100.00
2022-12-01T09:07:11.558Z,100.00
2022-12-01T09:12:15.527Z,100.00
2022-12-01T09:17:19.045Z,100.00
2022-12-01T09:22:21.618Z,100.00
2022-12-01T09:27:25.495Z,100.00
2022-12-01T09:32:28.100Z,100.00
2022-12-01T09:37:30.937Z,100.00
2022-12-01T09:42:35.675Z,100.00
2022-12-01T09:47:40.056Z,100.00
2022-12-01T09:52:47.488Z,100.00
2022-12-01T09:57:53.830Z,100.00
2022-12-01T10:03:02.197Z,100.00
2022-12-01T10:08:09.275Z,100.00
2022-12-01T10:13:18.198Z,100.00
2022-12-01T10:18:33.268Z,100.00
2022-12-01T10:23:50.963Z,100.00
2022-12-01T10:29:11.586Z,100.00
2022-12-01T10:34:17.882Z,100.00
2022-12-01T10:39:28.252Z,100.00
2022-12-01T10:44:32.492Z,100.00
2022-12-01T10:49:39.953Z,100.00
2022-12-01T10:54:42.556Z,100.00
2022-12-01T10:59:53.594Z,100.00
2022-12-01T11:05:00.219Z,100.00
2022-12-01T11:10:16.937Z,100.00
2022-12-01T11:15:26.286Z,100.00
2022-12-01T11:20:35.200Z,100.00
2022-12-01T11:25:38.019Z,100.00
2022-12-01T11:30:42.012Z,100.00
2022-12-01T11:35:49.940Z,100.00
2022-12-01T11:40:54.964Z,100.00
2022-12-01T11:46:03.766Z,100.00
2022-12-01T11:51:09.417Z,100.00
2022-12-01T11:56:17.923Z,100.00
2022-12-01T12:01:33.773Z,100.00
2022-12-01T12:06:48.026Z,100.00
2022-12-01T12:11:58.588Z,100.00
2022-12-01T12:17:21.728Z,100.00
2022-12-01T12:22:36.046Z,100.00
2022-12-01T12:27:48.266Z,100.00
2022-12-01T12:33:16.495Z,100.00
2022-12-01T12:38:38.162Z,100.00
2022-12-01T12:43:50.841Z,100.00
2022-12-01T12:49:22.949Z,100.00
2022-12-01T12:54:31.636Z,100.00
2022-12-01T12:59:43.297Z,100.00
2022-12-01T13:04:54.722Z,100.00
2022-12-01T13:10:03.167Z,100.00
2022-12-01T13:15:14.674Z,100.00
2022-12-01T13:20:27.572Z,98.07
2022-12-01T13:25:36.056Z,99.29
2022-12-01T13:30:39.684Z,100.00
2022-12-01T13:35:43.735Z,100.00
2022-12-01T13:40:47.569Z,100.00
2022-12-01T13:45:51.012Z,100.00
2022-12-01T13:51:01.049Z,100.00
2022-12-01T13:56:25.918Z,100.00
2022-12-01T14:01:47.660Z,100.00
2022-12-01T14:07:22.392Z,100.00
2022-12-01T14:12:30.243Z,100.00
2022-12-01T14:17:35.170Z,100.00
2022-12-01T14:22:42.553Z,100.00
2022-12-01T14:27:45.679Z,100.00
2022-12-01T14:32:48.625Z,100.00
2022-12-01T14:37:53.554Z,100.00
2022-12-01T14:43:16.304Z,100.00
2022-12-01T14:48:24.753Z,100.00
2022-12-01T14:53:32.853Z,100.00
2022-12-01T14:58:35.482Z,100.00
2022-12-01T15:03:41.402Z,100.00
2022-12-01T15:09:03.967Z,100.00
2022-12-01T15:14:24.542Z,100.00
2022-12-01T15:19:37.018Z,100.00
2022-12-01T15:24:41.523Z,100.00
2022-12-01T15:29:46.553Z,100.00
2022-12-01T15:34:50.456Z,100.00
2022-12-01T15:40:25.601Z,100.00
2022-12-01T15:45:23.691Z,100.00
2022-12-01T15:50:31.045Z,100.00
2022-12-01T15:55:37.309Z,100.00
2022-12-01T16:00:39.971Z,100.00
2022-12-01T16:05:45.480Z,100.00
2022-12-01T16:11:13.616Z,100.00
2022-12-01T16:16:40.692Z,100.00
2022-12-01T16:21:46.291Z,100.00
2022-12-01T16:26:52.365Z,100.00
2022-12-01T16:32:19.218Z,99.65
2022-12-01T16:37:22.529Z,100.00
2022-12-01T16:42:26.408Z,99.54
2022-12-01T16:47:32.912Z,100.00
2022-12-01T16:52:44.210Z,100.00
2022-12-01T16:57:49.106Z,100.00
2022-12-01T17:02:52.658Z,100.00
2022-12-01T17:07:55.657Z,100.00
2022-12-01T17:12:59.712Z,100.00
2022-12-01T17:18:04.162Z,100.00
2022-12-01T17:23:06.738Z,100.00
2022-12-01T17:28:12.189Z,100.00
2022-12-01T17:33:14.758Z,100.00
2022-12-01T17:38:17.397Z,100.00
2022-12-01T17:43:23.152Z,100.00
2022-12-01T17:48:25.793Z,100.00
2022-12-01T17:53:28.555Z,100.00
2022-12-01T17:58:32.600Z,100.00
2022-12-01T18:03:36.977Z,100.00
2022-12-01T18:08:41.948Z,100.00
2022-12-01T18:13:47.832Z,100.00
2022-12-01T18:18:50.959Z,100.00
2022-12-01T18:23:55.629Z,99.06
2022-12-01T18:29:04.892Z,98.30
2022-12-01T18:34:09.060Z,97.56
2022-12-01T18:39:12.606Z,99.38
2022-12-01T18:44:16.601Z,98.21
2022-12-01T18:49:22.533Z,97.44
2022-12-01T18:54:27.900Z,100.00
2022-12-01T18:59:31.970Z,99.10
2022-12-01T19:04:34.669Z,99.53
2022-12-01T19:09:37.608Z,100.00
2022-12-01T19:14:41.875Z,100.00
2022-12-01T19:19:47.658Z,100.00
2022-12-01T19:24:51.654Z,100.00
2022-12-01T19:29:56.211Z,100.00
2022-12-01T19:34:59.185Z,99.96
2022-12-01T19:40:02.013Z,100.00
2022-12-01T19:45:07.159Z,100.00
2022-12-01T19:50:15.428Z,100.00
2022-12-01T19:55:26.654Z,98.80
2022-12-01T20:00:31.151Z,100.00
2022-12-01T20:05:38.705Z,100.00
2022-12-01T20:10:47.784Z,100.00
2022-12-01T20:15:52.037Z,100.00
2022-12-01T20:21:05.083Z,99.22
2022-12-01T20:26:11.912Z,98.27
2022-12-01T20:31:18.893Z,95.91
2022-12-01T20:36:22.465Z,95.68
2022-12-01T20:41:30.002Z,96.86
2022-12-01T20:46:34.166Z,99.79
2022-12-01T20:51:36.864Z,100.00
2022-12-01T20:56:39.642Z,99.59
2022-12-01T21:01:55.866Z,100.00
2022-12-01T21:07:03.791Z,100.00
2022-12-01T21:12:31.765Z,100.00
2022-12-01T21:17:40.889Z,100.00
2022-12-01T21:22:43.775Z,100.00
2022-12-01T21:27:47.361Z,100.00
2022-12-01T21:32:52.047Z,100.00
2022-12-01T21:38:02.334Z,100.00
2022-12-01T21:43:17.158Z,100.00
2022-12-01T21:48:23.532Z,100.00
2022-12-01T21:53:31.626Z,100.00
2022-12-01T21:58:37.361Z,100.00
2022-12-01T22:03:45.446Z,100.00
2022-12-01T22:08:50.997Z,100.00
2022-12-01T22:14:00.356Z,100.00
2022-12-01T22:19:25.724Z,100.00
2022-12-01T22:24:33.586Z,100.00
2022-12-01T22:29:41.199Z,100.00
2022-12-01T22:34:50.358Z,100.00
2022-12-01T22:39:55.817Z,100.00
2022-12-01T22:45:01.281Z,100.00
2022-12-01T22:50:24.037Z,100.00
2022-12-01T22:55:26.773Z,100.00
2022-12-01T23:00:32.340Z,100.00
2022-12-01T23:05:36.316Z,100.00
2022-12-01T23:10:40.900Z,100.00
2022-12-01T23:15:46.810Z,100.00
2022-12-01T23:20:52.148Z,99.23
2022-12-01T23:25:55.341Z,100.00
2022-12-01T23:31:00.434Z,100.00
2022-12-01T23:36:13.059Z,100.00
2022-12-01T23:41:25.468Z,100.00
2022-12-01T23:46:29.402Z,100.00
2022-12-01T23:51:36.540Z,100.00
2022-12-01T23:56:42.754Z,100.00
